Time;durP1;ratioP1;P1;durP2;ratioP2;P2;SDS_P1;SDS_P2;PMS_P1;PMS_P2;Temp;Humidity;BMP_temperature;BMP_pressure;BME280_temperature;BME280_humidity;BME280_pressure;Samples;Min_cycle;Max_cycle;Signal;HPM_P1;HPM_P2
2021/09/30 00:00:25;;;;;;;24.17;9.23;;;9.50;99.90;;;;;;4865098;29;20192;-87
2021/09/30 00:02:50;;;;;;;24.83;9.87;;;9.50;99.90;;;;;;4865067;29;20708;-88
2021/09/30 00:05:16;;;;;;;34.97;9.87;;;9.50;99.90;;;;;;4848989;29;20190;-87
2021/09/30 00:07:42;;;;;;;33.43;10.27;;;9.50;99.90;;;;;;4881370;29;20216;-87
2021/09/30 00:10:11;;;;;;;25.20;10.27;;;9.50;99.90;;;;;;4864194;29;20198;-87
2021/09/30 00:12:44;;;;;;;22.37;10.63;;;9.40;99.90;;;;;;4864623;29;20182;-87
2021/09/30 00:15:13;;;;;;;27.13;9.97;;;9.40;99.90;;;;;;4864197;29;20634;-87
2021/09/30 00:17:57;;;;;;;26.47;9.83;;;9.40;99.90;;;;;;4849913;29;20621;-87
2021/09/30 00:47:51;;;;;;;27.27;10.57;;;;;;;;;;4866565;29;20212;-88
2021/09/30 00:50:32;;;;;;;23.23;10.03;;;;;;;;;;4850292;29;20212;-87
2021/09/30 02:58:32;;;;;;;30.00;11.03;;;9.20;99.90;;;;;;4882391;29;20539;-86
2021/09/30 03:01:06;;;;;;;23.37;10.27;;;9.20;99.90;;;;;;4882279;29;20174;-87
2021/09/30 03:03:37;;;;;;;19.43;10.07;;;9.20;99.90;;;;;;4882211;29;20262;-87
2021/09/30 03:06:07;;;;;;;26.47;11.90;;;9.20;99.90;;;;;;4865832;29;20178;-87
2021/09/30 03:08:37;;;;;;;24.10;10.73;;;9.30;99.90;;;;;;4865371;29;20261;-87
2021/09/30 03:11:03;;;;;;;26.17;11.57;;;9.20;99.90;;;;;;4865657;29;20201;-87
2021/09/30 03:13:31;;;;;;;21.20;11.10;;;9.30;99.90;;;;;;4865308;29;20275;-85
2021/09/30 03:16:08;;;;;;;26.67;11.37;;;9.20;99.90;;;;;;4865741;29;20691;-87
2021/09/30 03:23:33;;;;;;;27.93;11.30;;;9.30;99.90;;;;;;4881917;29;20291;-86
2021/09/30 03:26:00;;;;;;;34.57;13.07;;;;;;;;;;4882037;29;20238;-88
2021/09/30 03:28:26;;;;;;;24.60;10.67;;;9.40;99.90;;;;;;4849677;29;20220;-88
2021/09/30 03:30:54;;;;;;;24.13;11.20;;;9.40;99.90;;;;;;4865937;29;20250;-88
2021/09/30 03:33:21;;;;;;;27.23;11.20;;;9.40;99.90;;;;;;4865136;29;20178;-88
2021/09/30 03:35:49;;;;;;;24.67;10.93;;;9.40;99.90;;;;;;4865568;29;20631;-87
2021/09/30 03:38:15;;;;;;;23.03;11.30;;;;;;;;;;4865192;29;20631;-89
2021/09/30 03:40:42;;;;;;;32.23;11.43;;;9.40;99.90;;;;;;4850132;29;20190;-88
2021/09/30 03:43:08;;;;;;;22.97;11.57;;;9.40;99.90;;;;;;4850001;29;20190;-88
2021/09/30 03:45:35;;;;;;;25.13;11.47;;;9.40;99.90;;;;;;4850267;29;20643;-88
2021/09/30 03:48:01;;;;;;;23.70;10.83;;;9.40;99.90;;;;;;4857366;29;20218;-85
2021/09/30 03:50:31;;;;;;;22.67;10.73;;;9.90;99.90;;;;;;4870661;29;20197;-86
2021/09/30 03:53:09;;;;;;;20.63;10.13;;;9.40;99.90;;;;;;4864967;29;20193;-87
2021/09/30 03:56:00;;;;;;;25.20;10.80;;;;;;;;;;4851011;29;20216;-85
2021/09/30 04:01:11;;;;;;;26.10;10.07;;;9.50;99.90;;;;;;4881374;29;20181;-87
2021/09/30 04:03:37;;;;;;;21.17;10.13;;;9.50;99.90;;;;;;4864689;29;20241;-90
2021/09/30 04:06:02;;;;;;;25.77;12.43;;;9.50;99.90;;;;;;4881645;29;20198;-87
2021/09/30 04:08:29;;;;;;;24.30;11.73;;;9.50;99.90;;;;;;4864244;29;20218;-86
2021/09/30 04:10:56;;;;;;;25.60;12.73;;;9.50;99.90;;;;;;4849271;29;20185;-86
2021/09/30 04:13:22;;;;;;;26.43;11.43;;;;;;;;;;4864521;29;20628;-87
2021/09/30 04:15:50;;;;;;;21.77;10.70;;;;;;;;;;4864824;29;20237;-87
2021/09/30 04:18:16;;;;;;;30.23;12.20;;;9.50;99.90;;;;;;4881219;29;20276;-87
2021/09/30 04:20:42;;;;;;;31.03;11.23;;;;;;;;;;4864147;29;20201;-87
2021/09/30 04:23:08;;;;;;;34.37;11.63;;;9.50;99.90;;;;;;4881297;29;20182;-87
2021/09/30 04:25:34;;;;;;;33.90;12.37;;;;;;;;;;4848703;29;20202;-86
2021/09/30 04:28:00;;;;;;;25.10;10.87;;;9.60;99.90;;;;;;4876860;29;20213;-89
2021/09/30 04:30:25;;;;;;;20.53;11.00;;;9.60;99.90;;;;;;4897217;29;20197;-87
2021/09/30 04:32:52;;;;;;;25.97;11.67;;;9.60;99.90;;;;;;4879317;29;20425;-88
2021/09/30 04:35:18;;;;;;;36.60;11.30;;;9.60;99.90;;;;;;4850028;29;20559;-88
2021/09/30 04:37:44;;;;;;;26.40;11.77;;;;;;;;;;4897600;29;20646;-88
2021/09/30 04:40:12;;;;;;;24.17;10.40;;;9.60;99.90;;;;;;4897593;29;20273;-86
2021/09/30 04:42:38;;;;;;;22.97;10.83;;;;;;;;;;4862760;29;20245;-86
2021/09/30 04:45:04;;;;;;;22.00;10.30;;;9.60;99.90;;;;;;4895893;29;20597;-87
2021/09/30 04:47:30;;;;;;;29.37;11.77;;;9.70;99.90;;;;;;4876338;29;20217;-87
2021/09/30 04:49:56;;;;;;;19.17;9.73;;;9.70;99.90;;;;;;4864493;29;20558;-87
2021/09/30 04:52:22;;;;;;;22.10;11.10;;;;;;;;;;4863469;29;20209;-88
2021/09/30 04:54:48;;;;;;;24.43;9.73;;;9.70;99.90;;;;;;4875845;29;20225;-86
2021/09/30 04:57:14;;;;;;;21.30;10.90;;;9.80;99.90;;;;;;4875948;29;20196;-87
2021/09/30 04:59:40;;;;;;;22.17;11.10;;;9.80;99.90;;;;;;4862805;29;20258;-87
2021/09/30 05:02:06;;;;;;;27.53;10.43;;;;;;;;;;4895481;29;20249;-85
2021/09/30 05:04:32;;;;;;;25.07;10.80;;;9.80;99.90;;;;;;4875478;29;20467;-86
2021/09/30 05:06:59;;;;;;;26.23;11.30;;;9.80;99.90;;;;;;4879436;29;20625;-88
2021/09/30 05:09:26;;;;;;;23.47;10.27;;;9.90;99.90;;;;;;4879759;29;20193;-87
2021/09/30 05:11:55;;;;;;;23.07;9.93;;;;;;;;;;4862256;29;20198;-87
2021/09/30 05:14:21;;;;;;;26.47;10.30;;;9.90;99.90;;;;;;4887615;29;20193;-87
2021/09/30 05:16:49;;;;;;;21.67;10.47;;;;;;;;;;4855192;29;20245;-87
2021/09/30 05:19:15;;;;;;;28.57;11.17;;;10.70;99.90;;;;;;4864911;29;20185;-87
2021/09/30 05:21:41;;;;;;;17.43;10.53;;;9.90;99.90;;;;;;4870599;29;20678;-87
2021/09/30 05:24:07;;;;;;;28.30;10.90;;;;;;;;;;4862305;29;20197;-87
2021/09/30 05:26:33;;;;;;;22.37;12.40;;;;;;;;;;4889438;29;20280;-86
2021/09/30 05:29:00;;;;;;;24.03;12.27;;;9.90;99.90;;;;;;4857025;29;20197;-87
2021/09/30 05:31:28;;;;;;;23.63;10.90;;;10.00;99.90;;;;;;4868629;29;20193;-86
2021/09/30 05:33:54;;;;;;;34.47;15.30;;;;;;;;;;4859145;29;20221;-86
2021/09/30 05:36:21;;;;;;;25.60;11.83;;;10.00;99.90;;;;;;4866251;29;20193;-86
2021/09/30 05:38:47;;;;;;;31.47;14.77;;;10.00;99.90;;;;;;4884998;29;20194;-85
2021/09/30 05:41:12;;;;;;;22.50;10.57;;;10.00;99.90;;;;;;4865343;29;20563;-86
2021/09/30 05:43:41;;;;;;;23.13;10.60;;;;;;;;;;4863466;29;20205;-86
2021/09/30 05:46:09;;;;;;;23.73;10.00;;;;;;;;;;4863363;29;20204;-86
2021/09/30 05:48:35;;;;;;;26.17;10.47;;;10.00;99.90;;;;;;4879523;29;20209;-89
2021/09/30 05:51:01;;;;;;;22.73;10.13;;;;;;;;;;4878598;29;20246;-90
2021/09/30 05:53:27;;;;;;;24.17;10.10;;;;;;;;;;4861535;29;20182;-89
2021/09/30 05:55:53;;;;;;;16.37;8.87;;;10.10;99.90;;;;;;4861719;29;20189;-88
2021/09/30 05:58:19;;;;;;;23.27;9.47;;;;;;;;;;4861754;29;20177;-88
2021/09/30 06:14:09;;;;;;;18.80;10.37;;;8.00;99.90;;;;;;4897015;29;20177;-88
2021/09/30 06:16:37;;;;;;;25.63;10.10;;;10.30;99.90;;;;;;4880825;29;20244;-89
2021/09/30 06:19:04;;;;;;;19.70;9.93;;;;;;;;;;4867070;29;20196;-88
2021/09/30 06:21:30;;;;;;;25.77;10.73;;;10.20;99.90;;;;;;4882493;29;20197;-86
2021/09/30 06:23:57;;;;;;;30.73;13.70;;;10.20;99.90;;;;;;4881676;29;20181;-85
2021/09/30 06:26:23;;;;;;;59.90;30.17;;;10.30;99.90;;;;;;4898662;29;20264;-88
2021/09/30 06:28:48;;;;;;;33.53;17.50;;;10.30;99.90;;;;;;4881537;29;20192;-88
2021/09/30 06:31:14;;;;;;;29.73;14.63;;;;;;;;;;4866003;29;20189;-87
2021/09/30 06:33:40;;;;;;;30.00;13.40;;;10.30;99.90;;;;;;4880736;29;20272;-87
2021/09/30 06:36:06;;;;;;;29.07;13.53;;;;;;;;;;4880884;29;20276;-88
2021/09/30 06:38:32;;;;;;;31.77;13.40;;;10.30;99.90;;;;;;4881117;29;20250;-88
2021/09/30 06:40:57;;;;;;;31.50;16.37;;;10.30;99.90;;;;;;4874930;29;20185;-88
2021/09/30 06:43:23;;;;;;;30.03;14.80;;;10.30;99.90;;;;;;4872714;29;20668;-87
2021/09/30 06:45:50;;;;;;;33.50;14.43;;;10.20;99.90;;;;;;4877079;29;20275;-88
2021/09/30 06:48:16;;;;;;;41.53;18.03;;;10.00;99.90;;;;;;4895960;29;20240;-88
2021/09/30 06:50:43;;;;;;;30.00;15.30;;;10.30;99.90;;;;;;4865160;29;20266;-89
2021/09/30 06:53:09;;;;;;;26.50;14.53;;;10.20;99.90;;;;;;4862181;29;20193;-88
2021/09/30 06:55:35;;;;;;;30.00;14.27;;;;;;;;;;4862851;29;20278;-88
2021/09/30 06:58:00;;;;;;;27.13;13.13;;;10.30;99.90;;;;;;4862205;29;20246;-89
2021/09/30 07:00:27;;;;;;;33.13;15.93;;;10.00;99.90;;;;;;4862006;29;20190;-88
2021/09/30 07:02:54;;;;;;;34.50;13.80;;;10.30;99.90;;;;;;4880607;29;20212;-88
2021/09/30 07:05:20;;;;;;;30.90;12.37;;;10.30;99.90;;;;;;4882385;29;20190;-89
2021/09/30 07:07:46;;;;;;;25.63;12.90;;;10.30;99.90;;;;;;4865712;29;20253;-88
2021/09/30 07:10:12;;;;;;;31.97;15.20;;;10.20;99.90;;;;;;4865758;29;20182;-89
2021/09/30 07:12:44;;;;;;;25.83;13.43;;;10.30;99.90;;;;;;4882053;29;20654;-87
2021/09/30 07:15:10;;;;;;;31.20;18.27;;;10.20;99.90;;;;;;4865841;29;20245;-88
2021/09/30 07:17:36;;;;;;;24.97;12.83;;;10.30;99.90;;;;;;4865917;29;20281;-88
2021/09/30 07:20:02;;;;;;;30.17;14.50;;;;;;;;;;4865660;29;20429;-89
2021/09/30 07:22:28;;;;;;;44.27;22.30;;;10.30;99.90;;;;;;4866486;29;20212;-88
2021/09/30 07:24:53;;;;;;;24.97;14.83;;;10.30;99.90;;;;;;4850077;29;20529;-89
2021/09/30 07:27:20;;;;;;;34.57;17.10;;;;;;;;;;4865548;29;20221;-89
2021/09/30 07:29:45;;;;;;;35.40;13.43;;;10.30;99.90;;;;;;4865073;29;20243;-88
2021/09/30 07:32:12;;;;;;;35.13;16.20;;;;;;;;;;4865876;29;20210;-89
2021/09/30 07:34:39;;;;;;;30.70;16.63;;;10.30;99.90;;;;;;4866244;29;20188;-89
2021/09/30 07:37:05;;;;;;;45.03;19.93;;;;;;;;;;4851624;29;20193;-90
2021/09/30 07:39:31;;;;;;;37.47;18.50;;;10.30;99.90;;;;;;4867529;29;20278;-90
2021/09/30 07:41:58;;;;;;;44.87;23.43;;;10.30;99.90;;;;;;4867052;29;20193;-91
2021/09/30 07:44:25;;;;;;;42.33;23.37;;;10.20;99.90;;;;;;4867115;29;20190;-88
2021/09/30 07:46:53;;;;;;;53.00;24.90;;;10.30;99.90;;;;;;4867991;29;20221;-90
2021/09/30 07:49:20;;;;;;;57.53;28.27;;;10.10;99.90;;;;;;4868518;29;20185;-90
2021/09/30 07:51:47;;;;;;;61.13;27.67;;;9.50;99.90;;;;;;4853343;29;20194;-91
2021/09/30 07:54:14;;;;;;;75.83;30.00;;;10.70;99.90;;;;;;4868726;29;20193;-87
2021/09/30 07:56:42;;;;;;;63.30;27.13;;;10.30;99.90;;;;;;4885881;29;20189;-88
2021/09/30 07:59:08;;;;;;;69.10;31.47;;;10.20;99.90;;;;;;4868214;29;20178;-89
2021/09/30 08:01:34;;;;;;;60.50;30.70;;;10.20;99.90;;;;;;4868914;29;20648;-90
2021/09/30 08:04:02;;;;;;;52.33;27.90;;;;;;;;;;4869144;29;20186;-91
2021/09/30 08:06:28;;;;;;;56.53;26.17;;;10.30;99.90;;;;;;4871503;29;20205;-91
2021/09/30 08:08:54;;;;;;;42.23;21.07;;;10.20;99.90;;;;;;4873632;29;20632;-91
2021/09/30 08:11:21;;;;;;;36.30;18.67;;;10.30;99.90;;;;;;4878821;29;20189;-91
2021/09/30 08:13:46;;;;;;;33.63;17.47;;;10.30;99.90;;;;;;4874445;29;20196;-90
2021/09/30 08:16:14;;;;;;;47.47;18.53;;;;;;;;;;4886346;29;20233;-93
2021/09/30 08:18:40;;;;;;;28.77;17.00;;;10.20;99.90;;;;;;4884902;29;20245;-91
2021/09/30 08:21:12;;;;;;;36.50;17.27;;;10.20;99.90;;;;;;4889726;29;20177;-91
2021/09/30 08:23:39;;;;;;;32.80;17.67;;;10.10;99.90;;;;;;4868451;29;20197;-90
2021/09/30 08:26:05;;;;;;;35.67;18.63;;;10.00;99.90;;;;;;4877722;29;20250;-91
2021/09/30 08:28:33;;;;;;;39.70;16.80;;;10.20;99.90;;;;;;4888119;29;20212;-92
2021/09/30 08:31:02;;;;;;;40.77;17.60;;;10.20;99.90;;;;;;4889921;29;20182;-91
2021/09/30 08:33:28;;;;;;;37.97;17.43;;;10.20;99.90;;;;;;4886133;29;20540;-89
2021/09/30 08:35:57;;;;;;;42.30;18.17;;;10.20;99.90;;;;;;4889354;29;20182;-92
2021/09/30 08:38:30;;;;;;;32.73;16.80;;;8.90;99.90;;;;;;4888609;29;20192;-90
2021/09/30 08:40:56;;;;;;;41.60;17.50;;;10.50;99.90;;;;;;4890476;29;20184;-90
2021/09/30 08:43:22;;;;;;;41.73;18.87;;;;;;;;;;4868028;29;20194;-93
2021/09/30 08:45:50;;;;;;;37.90;17.27;;;10.30;99.90;;;;;;4865957;29;20192;-90
2021/09/30 08:48:16;;;;;;;37.80;17.90;;;10.20;99.90;;;;;;4891254;29;20205;-92
2021/09/30 08:50:43;;;;;;;40.97;17.23;;;10.20;99.90;;;;;;4900140;29;20317;-92
2021/09/30 08:53:11;;;;;;;32.30;14.97;;;9.90;99.90;;;;;;4901783;29;20299;-92
2021/09/30 08:55:37;;;;;;;40.70;20.07;;;10.30;99.90;;;;;;4883527;29;20245;-91
2021/09/30 08:58:04;;;;;;;42.60;19.70;;;10.40;99.90;;;;;;4882529;29;20193;-90
2021/09/30 09:00:32;;;;;;;36.10;18.97;;;10.50;99.90;;;;;;4883716;29;20196;-91
2021/09/30 09:02:58;;;;;;;40.30;21.17;;;10.30;99.90;;;;;;4882444;29;20186;-89
2021/09/30 09:05:25;;;;;;;44.50;20.17;;;10.50;99.90;;;;;;4898703;29;20196;-90
2021/09/30 09:07:52;;;;;;;44.20;22.57;;;10.30;99.90;;;;;;4898492;29;20208;-89
2021/09/30 09:10:20;;;;;;;41.53;21.63;;;10.40;99.90;;;;;;4878108;29;20200;-91
2021/09/30 09:12:46;;;;;;;56.07;27.87;;;10.30;99.90;;;;;;4869889;29;20190;-91
2021/09/30 09:15:12;;;;;;;52.90;33.53;;;;;;;;;;4873671;29;20193;-90
2021/09/30 09:17:49;;;;;;;53.93;31.13;;;10.40;99.90;;;;;;4879031;29;20200;-91
2021/09/30 09:20:15;;;;;;;54.57;25.93;;;10.40;99.90;;;;;;4888746;29;20695;-91
2021/09/30 09:22:42;;;;;;;43.80;21.77;;;;;;;;;;4878163;29;20201;-90
2021/09/30 09:25:08;;;;;;;37.00;22.00;;;;;;;;;;4857024;29;20629;-90
2021/09/30 09:27:54;;;;;;;47.63;20.07;;;10.50;99.90;;;;;;4871404;29;20215;-91
2021/09/30 09:30:43;;;;;;;36.20;16.40;;;10.70;99.90;;;;;;4893898;29;20189;-90
2021/09/30 09:33:16;;;;;;;38.90;18.53;;;10.50;99.90;;;;;;4886125;29;20185;-89
2021/09/30 09:36:19;;;;;;;45.60;20.50;;;10.30;99.90;;;;;;4887221;29;20192;-91
2021/09/30 09:38:53;;;;;;;36.23;16.60;;;10.70;99.90;;;;;;4886954;29;20196;-91
2021/09/30 09:41:28;;;;;;;36.33;16.83;;;10.70;99.90;;;;;;4903228;29;20176;-90
2021/09/30 09:44:00;;;;;;;41.40;19.13;;;10.40;99.90;;;;;;4886259;29;20203;-90
2021/09/30 09:46:31;;;;;;;33.50;16.20;;;10.70;99.90;;;;;;4885757;29;20195;-89
2021/09/30 09:49:04;;;;;;;37.13;15.50;;;11.00;99.90;;;;;;4884535;29;20196;-91
2021/09/30 09:51:52;;;;;;;33.57;13.90;;;10.50;99.90;;;;;;4886633;29;20177;-93
2021/09/30 09:54:20;;;;;;;27.10;13.20;;;10.50;99.90;;;;;;4903989;29;20172;-89
2021/09/30 09:56:47;;;;;;;27.80;15.40;;;10.70;99.90;;;;;;4879565;29;20185;-90
2021/09/30 09:59:26;;;;;;;27.77;13.57;;;10.40;99.90;;;;;;4905240;29;20188;-93
2021/09/30 10:01:56;;;;;;;37.03;14.30;;;10.90;99.90;;;;;;4900113;29;20172;-90
2021/09/30 10:04:25;;;;;;;26.50;14.13;;;10.50;99.90;;;;;;4899048;29;20178;-91
2021/09/30 10:06:51;;;;;;;30.13;14.73;;;10.50;99.90;;;;;;4898402;29;20224;-93
2021/09/30 10:09:17;;;;;;;33.60;16.77;;;;;;;;;;4881591;29;20706;-90
2021/09/30 10:11:43;;;;;;;34.03;18.17;;;10.60;99.90;;;;;;4881617;29;20192;-91
2021/09/30 10:14:10;;;;;;;41.90;19.47;;;;;;;;;;4893361;29;20161;-89
2021/09/30 10:16:37;;;;;;;43.50;19.27;;;10.70;99.90;;;;;;4907440;29;20317;-89
2021/09/30 10:19:08;;;;;;;30.20;16.30;;;10.70;99.90;;;;;;4916501;29;20229;-89
2021/09/30 10:21:36;;;;;;;34.43;17.70;;;10.70;99.90;;;;;;4903613;29;20631;-88
2021/09/30 10:24:06;;;;;;;31.33;15.77;;;10.70;99.90;;;;;;4897591;29;20183;-89
2021/09/30 10:26:47;;;;;;;39.63;17.45;;;10.70;99.90;;;;;;4911146;29;20272;-92
2021/09/30 10:29:47;;;;;;;28.43;15.33;;;10.70;99.90;;;;;;4898898;29;20200;-91
2021/09/30 10:32:20;;;;;;;32.87;15.07;;;10.80;99.90;;;;;;4857125;29;20277;-89
2021/09/30 10:34:50;;;;;;;34.93;16.67;;;10.80;99.90;;;;;;4875024;29;20197;-90
2021/09/30 10:37:21;;;;;;;30.90;15.93;;;11.00;99.90;;;;;;4889718;29;20201;-91
2021/09/30 10:40:16;;;;;;;30.88;15.35;;;11.00;99.90;;;;;;4874720;29;20648;-88
2021/09/30 10:42:56;;;;;;;32.40;17.37;;;12.70;99.90;;;;;;4876275;29;20189;-89
2021/09/30 10:45:25;;;;;;;29.57;15.33;;;11.00;99.90;;;;;;4882757;29;20643;-90
2021/09/30 10:47:51;;;;;;;28.80;15.50;;;10.80;99.90;;;;;;4877164;29;20217;-91
2021/09/30 10:50:17;;;;;;;35.07;17.27;;;10.70;99.90;;;;;;4873935;29;20644;-87
2021/09/30 10:52:57;;;;;;;29.48;17.33;;;13.50;99.90;;;;;;4859264;29;20193;-90
2021/09/30 10:55:26;;;;;;;29.98;14.75;;;10.90;99.90;;;;;;4869787;29;20190;-91
2021/09/30 10:57:54;;;;;;;30.58;15.68;;;10.90;99.90;;;;;;4876290;29;20200;-90
2021/09/30 11:00:19;;;;;;;24.75;15.55;;;10.90;99.90;;;;;;4876567;29;20273;-90
2021/09/30 11:03:10;;;;;;;24.05;15.18;;;10.90;99.90;;;;;;4884421;29;20644;-93
2021/09/30 11:05:42;;;;;;;27.85;16.92;;;10.90;99.90;;;;;;4892740;29;20170;-92
2021/09/30 11:08:22;;;;;;;29.02;16.25;;;10.90;99.90;;;;;;4879167;29;20286;-90
2021/09/30 11:13:40;;;;;;;32.78;17.95;;;10.90;99.90;;;;;;4891612;29;20819;-92
2021/09/30 11:16:12;;;;;;;28.40;16.23;;;10.90;99.90;;;;;;4873429;29;20380;-91
2021/09/30 11:18:51;;;;;;;24.70;14.70;;;11.00;99.90;;;;;;4889658;29;20189;-90
2021/09/30 11:21:29;;;;;;;29.73;16.10;;;11.00;99.90;;;;;;4890435;29;20249;-92
2021/09/30 11:24:02;;;;;;;25.57;15.60;;;11.00;99.90;;;;;;4892310;29;20197;-90
2021/09/30 11:26:33;;;;;;;22.67;12.18;;;11.00;99.90;;;;;;4876848;29;20193;-93
2021/09/30 11:29:25;;;;;;;24.45;13.07;;;10.90;99.90;;;;;;4876377;29;20195;-93
2021/09/30 11:31:53;;;;;;;26.03;15.43;;;11.00;99.90;;;;;;4890149;29;20185;-92
2021/09/30 11:34:30;;;;;;;24.40;15.23;;;11.00;99.90;;;;;;4889219;29;20271;-92
2021/09/30 11:36:58;;;;;;;24.57;14.37;;;11.00;99.90;;;;;;4890662;29;20199;-91
2021/09/30 11:39:31;;;;;;;21.92;13.43;;;11.10;99.90;;;;;;4874186;29;20238;-92
2021/09/30 11:41:57;;;;;;;27.48;16.35;;;11.10;99.90;;;;;;4858892;29;20193;-90
2021/09/30 11:44:23;;;;;;;22.83;14.33;;;11.10;99.90;;;;;;4873456;29;20607;-90
2021/09/30 11:46:53;;;;;;;20.08;13.38;;;11.20;99.90;;;;;;4857095;29;20216;-91
2021/09/30 11:49:20;;;;;;;17.98;11.65;;;11.20;99.90;;;;;;4872081;29;20193;-89
2021/09/30 11:51:48;;;;;;;22.80;14.50;;;11.20;99.90;;;;;;4873348;29;20222;-90
2021/09/30 11:54:23;;;;;;;21.97;13.20;;;11.20;99.90;;;;;;4889626;29;20192;-91
2021/09/30 11:56:51;;;;;;;20.87;12.97;;;11.20;99.90;;;;;;4892519;29;20653;-88
2021/09/30 11:59:19;;;;;;;16.15;10.95;;;11.30;99.90;;;;;;4874561;29;20209;-90
2021/09/30 12:01:46;;;;;;;16.02;9.75;;;11.20;99.90;;;;;;4875239;29;20262;-91
2021/09/30 12:04:28;;;;;;;19.37;10.63;;;11.30;99.90;;;;;;4866797;29;20182;-91
2021/09/30 12:06:54;;;;;;;18.43;11.47;;;11.20;99.90;;;;;;4874657;29;20220;-91
2021/09/30 12:09:20;;;;;;;15.83;10.87;;;11.20;99.90;;;;;;4876111;29;20209;-92
2021/09/30 12:12:02;;;;;;;17.73;11.73;;;11.30;99.90;;;;;;4876006;29;20249;-90
2021/09/30 12:14:43;;;;;;;14.15;10.45;;;11.30;99.90;;;;;;4887603;29;20217;-91
2021/09/30 12:17:13;;;;;;;19.05;11.38;;;11.30;99.90;;;;;;4908413;29;20233;-89
2021/09/30 12:19:45;;;;;;;19.37;11.77;;;11.30;99.90;;;;;;4901764;29;20218;-91
2021/09/30 12:22:14;;;;;;;22.20;12.40;;;11.30;99.90;;;;;;4900515;29;20166;-89
2021/09/30 12:24:50;;;;;;;20.80;13.00;;;11.30;99.90;;;;;;4883816;29;20195;-91
2021/09/30 12:27:17;;;;;;;22.67;13.05;;;11.30;99.90;;;;;;4883545;29;20205;-92
2021/09/30 12:29:45;;;;;;;19.37;13.93;;;11.40;99.90;;;;;;4868481;29;20193;-92
2021/09/30 12:32:15;;;;;;;21.80;14.02;;;11.40;99.90;;;;;;4899157;29;20177;-91
2021/09/30 12:34:53;;;;;;;20.80;13.35;;;10.80;99.90;;;;;;4882409;29;20185;-88
2021/09/30 12:37:25;;;;;;;23.02;14.05;;;11.50;99.90;;;;;;4884226;29;20241;-90
2021/09/30 12:40:04;;;;;;;20.85;14.50;;;11.50;99.90;;;;;;4882386;29;20185;-91
2021/09/30 12:42:30;;;;;;;24.92;16.83;;;11.50;99.90;;;;;;4876713;29;20272;-90
2021/09/30 12:44:57;;;;;;;32.35;17.75;;;11.50;99.90;;;;;;4886846;29;20651;-90
2021/09/30 12:47:42;;;;;;;43.40;21.77;;;11.70;99.90;;;;;;4871984;29;20206;-90
2021/09/30 12:50:15;;;;;;;40.00;26.65;;;11.80;99.90;;;;;;4871059;29;20197;-90
2021/09/30 12:52:41;;;;;;;50.78;31.42;;;11.60;99.90;;;;;;4878229;29;20196;-89
2021/09/30 12:55:26;;;;;;;50.85;31.83;;;11.70;99.90;;;;;;4880327;29;20546;-91
2021/09/30 12:57:52;;;;;;;53.65;30.40;;;11.60;99.90;;;;;;4863611;29;20182;-91
2021/09/30 13:00:19;;;;;;;64.18;35.53;;;11.60;99.90;;;;;;4885170;29;20196;-88
2021/09/30 13:02:47;;;;;;;56.47;32.80;;;11.60;99.90;;;;;;4890321;29;20190;-90
2021/09/30 13:05:14;;;;;;;70.75;39.80;;;9.30;99.90;;;;;;4891660;29;20200;-88
2021/09/30 13:07:51;;;;;;;62.83;36.58;;;11.60;99.90;;;;;;4874767;29;20205;-90
2021/09/30 13:10:30;;;;;;;56.13;33.08;;;11.70;99.90;;;;;;4886788;29;20177;-91
2021/09/30 13:13:01;;;;;;;59.20;35.53;;;11.80;99.90;;;;;;4873333;29;20215;-90
2021/09/30 13:15:39;;;;;;;63.35;33.75;;;11.70;99.90;;;;;;4887680;29;20248;-87
2021/09/30 13:18:06;;;;;;;60.72;34.90;;;11.80;99.90;;;;;;4883476;29;20204;-90
2021/09/30 13:20:32;;;;;;;49.63;28.70;;;11.70;99.90;;;;;;4888083;29;20268;-89
2021/09/30 13:22:58;;;;;;;43.63;26.23;;;;;;;;;;4870604;29;20273;-91
2021/09/30 13:25:23;;;;;;;49.58;29.95;;;11.80;99.90;;;;;;4871036;29;20328;-90
2021/09/30 13:27:52;;;;;;;45.70;26.10;;;11.80;99.90;;;;;;4873046;29;20202;-90
2021/09/30 13:30:22;;;;;;;42.97;22.65;;;11.80;99.90;;;;;;4872333;29;20237;-91
2021/09/30 13:32:49;;;;;;;41.97;24.02;;;11.80;99.90;;;;;;4871454;29;20184;-89
2021/09/30 13:35:18;;;;;;;44.25;24.80;;;12.10;99.90;;;;;;4869145;29;20217;-88
2021/09/30 13:37:45;;;;;;;44.20;24.98;;;11.80;99.90;;;;;;4889749;29;20276;-90
2021/09/30 13:40:11;;;;;;;55.35;30.80;;;11.80;99.90;;;;;;4873750;29;20552;-91
2021/09/30 13:42:40;;;;;;;63.03;33.00;;;11.80;99.90;;;;;;4856061;29;20293;-90
2021/09/30 13:45:12;;;;;;;66.43;34.63;;;11.80;99.90;;;;;;4875129;29;20188;-89
2021/09/30 13:47:38;;;;;;;56.83;30.02;;;11.80;99.90;;;;;;4877614;29;20205;-90
2021/09/30 13:50:07;;;;;;;69.72;33.40;;;12.00;99.90;;;;;;4861702;29;20178;-88
2021/09/30 13:52:33;;;;;;;56.17;27.60;;;11.90;99.90;;;;;;4878093;29;20177;-89
2021/09/30 13:54:59;;;;;;;62.45;27.20;;;;;;;;;;4857670;29;20229;-92
2021/09/30 13:57:46;;;;;;;63.28;29.88;;;11.90;99.90;;;;;;4872173;29;20189;-90
2021/09/30 14:00:16;;;;;;;70.85;30.77;;;12.10;99.90;;;;;;4877770;29;20187;-90
2021/09/30 14:02:46;;;;;;;66.65;32.05;;;11.90;99.90;;;;;;4861764;29;20177;-90
2021/09/30 14:05:14;;;;;;;73.47;33.53;;;11.90;99.90;;;;;;4875035;29;20272;-92
2021/09/30 14:08:17;;;;;;;119.85;47.92;;;11.60;99.90;;;;;;4851137;29;20249;-91
2021/09/30 14:10:39;;;;;;;77.30;35.90;;;15.70;99.90;;;;;;4884680;29;20194;-91
2021/09/30 14:13:05;;;;;;;73.47;33.25;;;12.10;99.90;;;;;;4898310;29;20237;-93
2021/09/30 14:15:33;;;;;;;75.35;33.63;;;12.10;99.90;;;;;;4874009;29;20272;-93
2021/09/30 14:17:58;;;;;;;84.65;39.35;;;11.90;99.90;;;;;;4874503;29;20225;-90
2021/09/30 14:20:24;;;;;;;111.18;50.35;;;;;;;;;;4887667;29;20572;-90
2021/09/30 14:23:00;;;;;;;;;;;;;;;;;;;;;
2021/09/30 14:25:26;;;;;;;127.93;61.00;;;12.40;99.90;;;;;;4895130;29;20177;-89
2021/09/30 14:27:52;;;;;;;94.50;42.97;;;12.00;99.90;;;;;;4877374;29;20233;-90
2021/09/30 14:30:18;;;;;;;140.88;70.72;;;12.00;99.90;;;;;;4870920;29;20719;-88
2021/09/30 14:32:44;;;;;;;113.05;47.60;;;12.00;99.90;;;;;;4888151;29;20270;-89
2021/09/30 14:35:24;;;;;;;116.40;52.67;;;12.00;99.90;;;;;;4890859;29;20174;-92
2021/09/30 14:37:50;;;;;;;126.50;56.45;;;12.00;99.90;;;;;;4855905;29;20196;-89
2021/09/30 14:40:16;;;;;;;121.15;54.10;;;12.00;99.90;;;;;;4875691;29;20265;-91
2021/09/30 14:42:42;;;;;;;105.53;47.83;;;12.00;99.90;;;;;;4882704;29;20273;-89
2021/09/30 14:45:08;;;;;;;97.55;44.85;;;12.00;99.90;;;;;;4870789;29;20538;-90
2021/09/30 14:47:34;;;;;;;107.65;49.65;;;12.00;99.90;;;;;;4870805;29;20223;-91
2021/09/30 14:50:00;;;;;;;88.82;40.88;;;12.00;99.90;;;;;;4873301;29;20184;-91
2021/09/30 14:52:26;;;;;;;92.32;42.25;;;12.00;99.90;;;;;;4859890;29;20189;-90
2021/09/30 14:54:51;;;;;;;80.70;37.40;;;12.00;99.90;;;;;;4889610;29;20265;-89
2021/09/30 14:57:18;;;;;;;91.30;40.83;;;12.00;99.90;;;;;;4889278;29;20988;-90
2021/09/30 14:59:44;;;;;;;85.93;42.38;;;12.00;99.90;;;;;;4889550;29;20273;-88
2021/09/30 15:02:10;;;;;;;98.45;48.10;;;12.00;99.90;;;;;;4873118;29;20327;-89
2021/09/30 15:04:37;;;;;;;91.15;46.97;;;12.00;99.90;;;;;;4865932;29;20601;-90
2021/09/30 15:07:03;;;;;;;89.35;44.72;;;12.00;99.90;;;;;;4872800;29;20723;-89
2021/09/30 15:09:29;;;;;;;83.97;43.10;;;12.00;99.90;;;;;;4872803;29;20169;-90
2021/09/30 15:11:55;;;;;;;79.30;41.40;;;11.80;99.90;;;;;;4871593;29;20520;-88
2021/09/30 15:14:22;;;;;;;69.93;34.58;;;12.00;99.90;;;;;;4870872;29;20200;-89
2021/09/30 15:19:50;;;;;;;67.30;35.53;;;12.00;99.90;;;;;;4877435;29;20209;-90
2021/09/30 15:22:17;;;;;;;61.92;33.50;;;12.00;99.90;;;;;;4874064;29;20208;-89
2021/09/30 15:24:43;;;;;;;67.25;33.80;;;12.00;99.90;;;;;;4893472;29;20181;-90
2021/09/30 15:27:11;;;;;;;79.22;39.95;;;12.00;99.90;;;;;;4887616;29;20224;-89
2021/09/30 15:29:37;;;;;;;112.70;49.38;;;12.00;99.90;;;;;;4859663;29;20197;-90
2021/09/30 15:32:03;;;;;;;74.68;35.28;;;12.00;99.90;;;;;;4883713;29;20194;-90
2021/09/30 15:34:30;;;;;;;99.80;45.55;;;12.00;99.90;;;;;;4858522;29;20189;-89
2021/09/30 15:36:56;;;;;;;80.25;38.65;;;12.00;99.90;;;;;;4876233;29;20194;-89
2021/09/30 15:39:22;;;;;;;58.78;31.67;;;12.00;99.90;;;;;;4891306;29;20188;-89
2021/09/30 15:41:49;;;;;;;69.22;33.50;;;11.90;99.90;;;;;;4859832;29;20177;-91
2021/09/30 15:44:18;;;;;;;61.25;31.80;;;12.00;99.90;;;;;;4890722;29;20186;-89
2021/09/30 15:46:48;;;;;;;56.95;28.02;;;11.90;99.90;;;;;;4873474;29;20265;-89
2021/09/30 15:49:15;;;;;;;67.97;34.17;;;11.90;99.90;;;;;;4888812;29;20194;-90
2021/09/30 15:51:40;;;;;;;60.72;30.42;;;11.90;99.90;;;;;;4873306;29;20185;-90